Terminal Aerodrome Forecast
Issued by NWS

Home | Current Version | Previous Version | Text Only | Print | Product List | Glossary On
Versions: 1 2 3 4 5 6 7 8 9 10 11 12 13 14
551
FTUS46 KSEW 260811 AAA
TAFPAE
TAF AMD
KPAE 260811Z 2608/2706 19009KT P6SM BKN035
      TEMPO 2609/2611 BKN025 OVC035
     FM261100 19010KT P6SM OVC020
     FM262100 20013G20KT P6SM -SHRA BKN030
     FM270000 34009KT P6SM -SHRA OVC022
     FM270400 01007KT P6SM VCSH OVC020=

USA.gov is the U.S. government's official web portal to all federal, state and local government web resources and services.